Time;durP1;ratioP1;P1;durP2;ratioP2;P2;SDS_P1;SDS_P2;PMS_P1;PMS_P2;Temp;Humidity;BMP_temperature;BMP_pressure;BME280_temperature;BME280_humidity;BME280_pressure;Samples;Min_cycle;Max_cycle;Signal;HPM_P1;HPM_P2
2021/12/22 00:04:44;;;;;;;;;;;;;;;;;;4860206;29;20055;-89
2021/12/22 00:07:23;;;;;;;25.60;12.07;;;;;;;;;;4887906;29;19919;-89
2021/12/22 00:09:49;;;;;;;25.80;11.80;;;;;;;;;;4873429;29;20454;-89
2021/12/22 00:12:50;;;;;;;20.95;11.40;;;;;;;;;;4889727;29;20093;-88
2021/12/22 00:15:21;;;;;;;22.10;12.10;;;;;;;;;;4871462;29;20041;-89
2021/12/22 00:21:51;;;;;;;23.98;11.88;;;;;;;;;;4804204;29;20654;-89
2021/12/22 00:24:22;;;;;;;25.27;12.45;;;;;;;;;;4830980;29;20036;-89
2021/12/22 00:27:23;;;;;;;23.98;13.20;;;;;;;;;;4885627;29;20524;-89
2021/12/22 00:30:04;;;;;;;;;;;;;;;;;;;;;
2021/12/22 00:33:04;;;;;;;23.38;12.13;;;;;;;;;;4886891;29;20400;-90
2021/12/22 00:35:54;;;;;;;23.25;13.48;;;;;;;;;;4890010;29;20112;-89
2021/12/22 00:38:25;;;;;;;25.65;13.05;;;;;;;;;;4818610;29;20572;-88
2021/12/22 00:44:11;;;;;;;25.45;14.13;;;;;;;;;;4812552;29;20114;-90
2021/12/22 00:47:10;;;;;;;23.27;12.13;;;;;;;;;;4798633;29;20058;-89
2021/12/22 00:50:25;;;;;;;24.05;13.07;;;;;;;;;;4778862;29;20577;-89
2021/12/22 00:53:26;;;;;;;25.40;12.77;;;;;;;;;;4762873;30;20059;-89
2021/12/22 00:55:57;;;;;;;26.48;13.45;;;;;;;;;;4742781;30;20400;-90
2021/12/22 00:58:46;;;;;;;23.42;11.88;;;;;;;;;;4780662;29;20047;-89
2021/12/22 01:01:58;;;;;;;;;;;;;;;;;;;;;
2021/12/22 01:04:34;;;;;;;25.42;12.30;;;;;;;;;;4818214;29;20040;-90
2021/12/22 01:06:59;;;;;;;24.40;13.60;;;;;;;;;;4834216;29;20046;-87
2021/12/22 01:09:28;;;;;;;25.15;13.15;;;;;;;;;;4817649;29;20042;-89
2021/12/22 01:11:59;;;;;;;22.98;13.43;;;;;;;;;;4850635;29;20041;-88
2021/12/22 01:14:27;;;;;;;24.70;13.55;;;;;;;;;;4865128;29;20052;-89
2021/12/22 01:17:01;;;;;;;27.25;13.88;;;;;;;;;;4868743;29;20167;-88
2021/12/22 01:19:37;;;;;;;24.75;13.90;;;;;;;;;;4869153;29;20037;-90
2021/12/22 01:22:26;;;;;;;28.15;13.48;;;;;;;;;;4873176;29;20032;-89
2021/12/22 01:25:15;;;;;;;26.35;13.68;;;;;;;;;;4871005;29;20132;-89
2021/12/22 01:27:42;;;;;;;27.40;13.90;;;;;;;;;;4869898;29;20061;-88
2021/12/22 01:30:15;;;;;;;25.92;13.50;;;;;;;;;;4867046;29;20037;-88
2021/12/22 01:32:44;;;;;;;28.92;14.40;;;;;;;;;;4884151;29;20418;-89
2021/12/22 01:35:13;;;;;;;28.00;13.70;;;;;;;;;;4872891;29;20037;-90
2021/12/22 01:37:39;;;;;;;24.65;12.65;;;;;;;;;;4868780;29;20040;-89
2021/12/22 01:40:07;;;;;;;25.13;12.77;;;;;;;;;;4863901;29;20030;-88
2021/12/22 01:42:35;;;;;;;26.17;13.63;;;;;;;;;;4874315;29;20048;-87
2021/12/22 01:50:38;;;;;;;26.55;13.65;;;;;;;;;;4875105;29;20114;-88
2021/12/22 01:53:30;;;;;;;25.75;13.50;;;;;;;;;;4892744;29;20035;-89
2021/12/22 01:56:17;;;;;;;23.90;13.10;;;;;;;;;;4891899;29;20029;-88
2021/12/22 01:58:53;;;;;;;27.35;13.73;;;;;;;;;;4892794;29;20486;-89
2021/12/22 02:01:22;;;;;;;25.92;13.02;;;;;;;;;;4885026;29;20024;-89
2021/12/22 02:03:50;;;;;;;27.38;14.07;;;;;;;;;;4892666;29;20127;-88
2021/12/22 02:06:17;;;;;;;23.58;12.23;;;;;;;;;;4892332;29;20035;-88
2021/12/22 02:08:45;;;;;;;24.50;13.98;;;;;;;;;;4888674;29;20400;-88
2021/12/22 02:11:18;;;;;;;25.90;13.45;;;;;;;;;;4902027;29;20137;-88
2021/12/22 02:13:49;;;;;;;26.98;13.32;;;;;;;;;;4889020;29;20113;-91
2021/12/22 02:16:16;;;;;;;27.60;13.27;;;;;;;;;;4888027;29;20056;-88
2021/12/22 02:18:47;;;;;;;24.25;12.32;;;;;;;;;;4886282;29;20055;-91
2021/12/22 02:21:13;;;;;;;29.55;13.43;;;;;;;;;;4893232;29;20053;-89
2021/12/22 02:23:39;;;;;;;24.42;13.93;;;;;;;;;;4900203;29;20036;-89
2021/12/22 02:26:30;;;;;;;25.35;12.48;;;;;;;;;;4888317;29;20032;-89
2021/12/22 02:28:59;;;;;;;25.50;13.60;;;;;;;;;;4909569;29;20756;-88
2021/12/22 02:31:25;;;;;;;24.98;12.73;;;;;;;;;;4895498;29;20048;-88
2021/12/22 02:33:51;;;;;;;30.55;13.35;;;;;;;;;;4893101;29;20036;-88
2021/12/22 02:38:48;;;;;;;25.50;12.15;;;;;;;;;;4901688;29;20044;-89
2021/12/22 02:41:16;;;;;;;33.80;13.60;;;;;;;;;;4889794;29;20039;-87
2021/12/22 02:43:49;;;;;;;28.33;12.85;;;;;;;;;;4886130;29;20043;-89
2021/12/22 02:46:21;;;;;;;21.98;12.43;;;;;;;;;;4897457;29;20751;-89
2021/12/22 02:48:50;;;;;;;28.48;12.85;;;;;;;;;;4890600;29;20473;-88
2021/12/22 02:51:17;;;;;;;26.90;12.73;;;;;;;;;;4889291;29;20052;-87
2021/12/22 02:53:50;;;;;;;21.80;11.25;;;;;;;;;;4903139;29;20440;-88
2021/12/22 03:04:12;;;;;;;28.50;12.20;;;;;;;;;;4903116;29;20058;-87
2021/12/22 03:09:34;;;;;;;27.73;13.65;;;;;;;;;;4905643;29;20082;-90
2021/12/22 03:12:04;;;;;;;26.65;12.73;;;;;;;;;;4888076;29;20032;-89
2021/12/22 03:14:30;;;;;;;27.05;11.13;;;;;;;;;;4892575;29;20083;-88
2021/12/22 03:16:57;;;;;;;28.50;13.20;;;;;;;;;;4885965;29;20425;-89
2021/12/22 03:19:28;;;;;;;25.60;12.60;;;;;;;;;;4885450;29;20505;-90
2021/12/22 03:22:02;;;;;;;28.27;12.93;;;;;;;;;;4883756;29;20032;-89
2021/12/22 03:24:29;;;;;;;27.00;12.57;;;;;;;;;;4885194;29;20119;-88
2021/12/22 03:27:02;;;;;;;26.00;11.77;;;;;;;;;;4881496;29;20126;-87
2021/12/22 03:29:32;;;;;;;30.50;13.48;;;;;;;;;;4886874;29;20555;-89
2021/12/22 03:32:01;;;;;;;27.50;13.38;;;;;;;;;;4889892;29;20036;-88
2021/12/22 03:34:26;;;;;;;28.02;12.95;;;;;;;;;;4886919;29;20040;-88
2021/12/22 03:36:52;;;;;;;23.70;12.15;;;;;;;;;;4886813;29;20031;-89
2021/12/22 03:39:18;;;;;;;26.85;12.32;;;;;;;;;;4905399;29;20180;-88
2021/12/22 03:41:46;;;;;;;32.20;13.95;;;;;;;;;;4886042;29;20032;-88
2021/12/22 03:44:12;;;;;;;29.33;12.52;;;;;;;;;;4883890;29;20035;-87
2021/12/22 03:46:41;;;;;;;27.10;12.25;;;;;;;;;;4901444;29;20483;-89
2021/12/22 03:49:08;;;;;;;29.42;14.27;;;;;;;;;;4884736;29;20038;-90
2021/12/22 03:51:37;;;;;;;27.60;13.13;;;;;;;;;;4884529;29;20040;-89
2021/12/22 03:54:10;;;;;;;26.17;11.90;;;;;;;;;;4874554;29;20048;-89
2021/12/22 03:56:35;;;;;;;;;;;;;;;;;;4890074;29;20036;-88
2021/12/22 03:59:01;;;;;;;25.00;11.85;;;;;;;;;;4887968;29;19927;-88
2021/12/22 04:01:27;;;;;;;28.88;13.30;;;;;;;;;;4887511;29;20040;-88
2021/12/22 04:03:56;;;;;;;23.50;12.65;;;;;;;;;;4885470;29;20032;-89
2021/12/22 04:06:22;;;;;;;25.30;12.65;;;;;;;;;;4898830;29;20107;-90
2021/12/22 04:08:47;;;;;;;26.58;12.43;;;;;;;;;;4886817;29;20084;-88
2021/12/22 04:11:13;;;;;;;26.73;12.25;;;;;;;;;;4889367;29;20099;-89
2021/12/22 04:13:38;;;;;;;26.42;12.73;;;;;;;;;;4884732;29;20036;-87
2021/12/22 04:16:04;;;;;;;27.58;11.82;;;;;;;;;;4888831;29;20525;-89
2021/12/22 04:18:30;;;;;;;28.35;11.88;;;;;;;;;;4885646;29;20039;-89
2021/12/22 04:20:58;;;;;;;22.75;11.95;;;;;;;;;;4883579;29;20119;-90
2021/12/22 04:23:23;;;;;;;27.20;13.05;;;;;;;;;;4885364;29;20095;-89
2021/12/22 04:25:49;;;;;;;27.92;12.95;;;;;;;;;;4884831;29;20064;-90
2021/12/22 04:28:19;;;;;;;25.55;11.90;;;;;;;;;;4899804;29;20039;-90
2021/12/22 04:30:49;;;;;;;26.20;12.60;;;;;;;;;;4899814;29;20064;-90
2021/12/22 04:33:24;;;;;;;27.77;13.88;;;;;;;;;;4885840;29;20032;-88
2021/12/22 04:35:55;;;;;;;24.98;12.57;;;;;;;;;;4888578;29;20095;-89
2021/12/22 04:38:23;;;;;;;26.17;12.25;;;;;;;;;;4886372;29;20056;-90
2021/12/22 04:40:56;;;;;;;26.33;12.82;;;;;;;;;;4887377;29;20028;-88
2021/12/22 04:43:21;;;;;;;25.75;13.00;;;;;;;;;;4889878;29;20055;-89
2021/12/22 04:45:49;;;;;;;28.23;12.57;;;;;;;;;;4886620;29;20040;-89
2021/12/22 04:48:15;;;;;;;28.52;13.48;;;;;;;;;;4901484;29;20040;-89
2021/12/22 04:50:44;;;;;;;30.70;13.07;;;;;;;;;;4879138;29;20595;-90
2021/12/22 04:53:14;;;;;;;27.73;12.63;;;;;;;;;;4880396;29;20055;-88
2021/12/22 04:55:40;;;;;;;26.90;12.80;;;;;;;;;;4882252;29;20032;-89
2021/12/22 04:58:05;;;;;;;27.20;12.00;;;;;;;;;;4887862;29;20091;-89
2021/12/22 05:00:36;;;;;;;25.08;12.50;;;;;;;;;;4882564;29;20032;-89
2021/12/22 05:03:09;;;;;;;27.30;12.95;;;;;;;;;;4885657;29;20037;-89
2021/12/22 05:05:38;;;;;;;27.42;11.95;;;;;;;;;;4886654;29;20044;-90
2021/12/22 05:08:04;;;;;;;24.75;12.30;;;;;;;;;;4887034;29;20037;-90
2021/12/22 05:10:30;;;;;;;25.90;12.57;;;;;;;;;;4884707;29;20036;-90
2021/12/22 05:12:58;;;;;;;24.35;11.75;;;;;;;;;;4883574;29;20037;-88
2021/12/22 05:15:27;;;;;;;23.98;11.40;;;;;;;;;;4886199;29;20515;-89
2021/12/22 05:20:22;;;;;;;28.75;12.50;;;;;;;;;;4887265;29;20029;-89
2021/12/22 05:22:50;;;;;;;26.02;12.02;;;;;;;;;;4886244;29;20446;-89
2021/12/22 05:25:18;;;;;;;25.40;11.13;;;;;;;;;;4883138;29;20127;-88
2021/12/22 05:27:46;;;;;;;25.88;11.98;;;;;;;;;;4886126;29;20028;-89
2021/12/22 05:30:12;;;;;;;22.13;11.43;;;;;;;;;;4882752;29;20139;-88
2021/12/22 05:32:40;;;;;;;26.40;11.65;;;;;;;;;;4885731;29;21983;-89
2021/12/22 05:35:10;;;;;;;25.30;11.77;;;;;;;;;;4889160;29;20060;-90
2021/12/22 05:37:36;;;;;;;25.05;11.63;;;;;;;;;;4884276;29;20148;-88
2021/12/22 05:40:03;;;;;;;23.08;11.85;;;;;;;;;;4894647;29;20080;-89
2021/12/22 05:42:29;;;;;;;22.70;10.98;;;;;;;;;;4887391;29;20048;-88
2021/12/22 05:44:57;;;;;;;26.55;11.88;;;;;;;;;;4883887;29;20502;-88
2021/12/22 05:47:25;;;;;;;22.35;11.63;;;;;;;;;;4886958;29;20377;-88
2021/12/22 05:49:56;;;;;;;23.20;11.10;;;;;;;;;;4886510;29;20045;-88
2021/12/22 05:52:22;;;;;;;22.73;11.23;;;;;;;;;;4889591;29;20041;-89
2021/12/22 05:54:51;;;;;;;22.55;10.98;;;;;;;;;;4882467;29;23009;-89
2021/12/22 05:57:19;;;;;;;22.65;10.95;;;;;;;;;;4895631;29;20480;-89
2021/12/22 05:59:45;;;;;;;21.88;9.98;;;;;;;;;;4880493;29;20037;-89
2021/12/22 06:02:14;;;;;;;23.15;10.90;;;;;;;;;;4883152;29;20120;-88
2021/12/22 06:04:39;;;;;;;20.98;10.90;;;;;;;;;;4883909;29;20662;-89
2021/12/22 06:07:08;;;;;;;27.25;11.95;;;;;;;;;;4885755;29;20037;-89
2021/12/22 06:09:36;;;;;;;24.45;10.90;;;;;;;;;;4886862;29;20040;-88
2021/12/22 06:12:01;;;;;;;20.88;10.70;;;;;;;;;;4886214;29;20040;-89
2021/12/22 06:14:27;;;;;;;22.30;10.75;;;;;;;;;;4886648;29;20540;-88
2021/12/22 06:16:52;;;;;;;22.77;10.40;;;;;;;;;;4883633;29;20036;-88
2021/12/22 06:19:20;;;;;;;28.42;11.73;;;;;;;;;;4883905;29;20040;-89
2021/12/22 06:21:48;;;;;;;21.20;9.90;;;;;;;;;;4887346;29;20033;-89
2021/12/22 06:24:20;;;;;;;21.08;10.32;;;;;;;;;;4883541;29;20028;-89
2021/12/22 06:26:48;;;;;;;24.98;10.32;;;;;;;;;;4883068;29;20111;-88
2021/12/22 06:29:14;;;;;;;21.13;10.20;;;;;;;;;;4886777;29;20036;-89
2021/12/22 06:31:39;;;;;;;20.05;10.48;;;;;;;;;;4888377;29;20033;-90
2021/12/22 06:34:05;;;;;;;22.60;10.45;;;;;;;;;;4886377;29;20036;-89
2021/12/22 06:36:33;;;;;;;22.90;10.68;;;;;;;;;;4882780;29;20080;-89
2021/12/22 06:38:59;;;;;;;21.67;10.93;;;;;;;;;;4886036;29;20025;-89
2021/12/22 06:41:31;;;;;;;25.73;11.32;;;;;;;;;;4886073;29;20033;-89
2021/12/22 06:43:57;;;;;;;22.27;11.30;;;;;;;;;;4886675;29;20037;-89
2021/12/22 06:46:23;;;;;;;23.70;11.35;;;;;;;;;;4888215;29;20056;-87
2021/12/22 06:48:52;;;;;;;21.58;10.93;;;;;;;;;;4886767;29;20040;-89
2021/12/22 06:51:25;;;;;;;22.65;9.80;;;;;;;;;;4888284;29;20584;-90
2021/12/22 06:53:53;;;;;;;19.58;9.70;;;;;;;;;;4882275;29;20029;-89
2021/12/22 06:56:18;;;;;;;21.50;9.65;;;;;;;;;;4879361;29;20036;-88
2021/12/22 06:58:47;;;;;;;22.45;10.98;;;;;;;;;;4879950;29;20108;-91
2021/12/22 07:01:17;;;;;;;20.48;10.35;;;;;;;;;;4885866;29;20594;-89
2021/12/22 07:03:43;;;;;;;20.80;10.82;;;;;;;;;;4882990;29;20029;-91
2021/12/22 07:06:14;;;;;;;20.42;9.88;;;;;;;;;;4883628;29;20396;-90
2021/12/22 07:08:49;;;;;;;20.75;9.77;;;;;;;;;;4886542;29;20047;-88
2021/12/22 07:11:19;;;;;;;21.05;10.27;;;;;;;;;;4882677;29;20077;-89
2021/12/22 07:13:44;;;;;;;20.42;10.32;;;;;;;;;;4883434;29;20500;-88
2021/12/22 07:16:17;;;;;;;25.45;11.57;;;;;;;;;;4880727;29;20056;-88
2021/12/22 07:18:46;;;;;;;19.77;10.65;;;;;;;;;;4884530;29;20059;-89
2021/12/22 07:21:14;;;;;;;25.25;11.10;;;;;;;;;;4882015;29;20520;-88
2021/12/22 07:23:45;;;;;;;21.15;11.50;;;;;;;;;;4884417;29;20036;-90
2021/12/22 07:26:28;;;;;;;18.48;9.00;;;;;;;;;;4889661;29;20047;-89
2021/12/22 07:28:56;;;;;;;18.50;9.25;;;;;;;;;;4883882;29;20149;-91
2021/12/22 07:31:30;;;;;;;21.00;10.10;;;;;;;;;;4885416;29;20048;-90
2021/12/22 07:34:01;;;;;;;24.13;10.73;;;;;;;;;;4899291;29;20036;-89
2021/12/22 07:36:31;;;;;;;19.73;9.68;;;;;;;;;;4887906;29;20067;-90
2021/12/22 07:39:03;;;;;;;22.58;10.02;;;;;;;;;;4888963;29;20041;-90
2021/12/22 07:41:31;;;;;;;21.17;10.63;;;;;;;;;;4886939;29;20075;-89
2021/12/22 07:44:02;;;;;;;21.30;10.23;;;;;;;;;;4883282;29;20036;-89
2021/12/22 07:46:31;;;;;;;22.15;10.32;;;;;;;;;;4880713;29;20712;-90
2021/12/22 07:48:59;;;;;;;17.70;8.75;;;;;;;;;;4884020;29;20563;-90
2021/12/22 07:51:32;;;;;;;20.15;9.88;;;;;;;;;;4879170;29;20477;-91
2021/12/22 07:54:00;;;;;;;16.30;8.95;;;;;;;;;;4883338;29;20033;-89
2021/12/22 07:56:35;;;;;;;17.55;9.25;;;;;;;;;;4881495;29;20045;-88
2021/12/22 07:59:03;;;;;;;19.63;8.73;;;;;;;;;;4880441;29;20055;-88
2021/12/22 08:01:34;;;;;;;18.50;9.55;;;;;;;;;;4883647;29;20035;-89
2021/12/22 08:04:06;;;;;;;17.08;9.35;;;;;;;;;;4882302;29;20037;-91
2021/12/22 08:06:41;;;;;;;17.77;9.82;;;;;;;;;;4882949;29;20028;-90
2021/12/22 08:09:12;;;;;;;19.30;9.45;;;;;;;;;;4888039;29;20096;-92
2021/12/22 08:11:37;;;;;;;16.95;9.80;;;;;;;;;;4880611;29;20044;-88
2021/12/22 08:14:06;;;;;;;20.38;10.07;;;;;;;;;;4881415;29;20544;-89
2021/12/22 08:16:35;;;;;;;16.75;9.43;;;;;;;;;;4883795;29;20126;-90
2021/12/22 08:19:07;;;;;;;18.08;10.25;;;;;;;;;;4883578;29;20636;-88
2021/12/22 08:21:38;;;;;;;17.83;9.57;;;;;;;;;;4883723;29;20165;-90
2021/12/22 08:24:13;;;;;;;21.33;10.25;;;;;;;;;;4881866;29;20033;-90
2021/12/22 08:26:38;;;;;;;21.88;10.43;;;;;;;;;;4883408;29;20040;-90
2021/12/22 08:29:09;;;;;;;19.70;10.18;;;;;;;;;;4885508;29;20057;-88
2021/12/22 08:31:35;;;;;;;19.20;9.50;;;;;;;;;;4890759;29;20121;-91
2021/12/22 08:34:06;;;;;;;18.48;8.68;;;;;;;;;;4885688;29;20120;-88
2021/12/22 08:39:23;;;;;;;18.83;9.35;;;;;;;;;;4887499;29;20092;-91
2021/12/22 08:41:54;;;;;;;17.45;9.15;;;;;;;;;;4887287;29;20033;-89
2021/12/22 08:44:25;;;;;;;18.42;9.32;;;;;;;;;;4886515;29;20053;-91
2021/12/22 08:47:08;;;;;;;19.50;10.35;;;;;;;;;;4885693;29;20492;-88
2021/12/22 08:49:40;;;;;;;20.85;11.00;;;;;;;;;;4889499;29;20060;-89
2021/12/22 08:52:12;;;;;;;19.77;9.50;;;;;;;;;;4886789;29;20053;-90
2021/12/22 08:54:43;;;;;;;19.35;10.13;;;;;;;;;;4887634;29;20048;-90
2021/12/22 08:57:14;;;;;;;17.20;8.95;;;;;;;;;;4884132;29;20041;-91
2021/12/22 08:59:55;;;;;;;;;;;;;;;;;;;;;
2021/12/22 09:02:27;;;;;;;17.27;10.05;;;;;;;;;;4885910;29;20525;-89
2021/12/22 09:08:45;;;;;;;16.63;9.18;;;;;;;;;;4889644;29;20045;-90
2021/12/22 09:11:45;;;;;;;15.70;9.32;;;;;;;;;;4871465;29;20544;-89
2021/12/22 09:14:40;;;;;;;16.95;9.40;;;;;;;;;;4891164;29;20039;-89
2021/12/22 09:17:30;;;;;;;;;;;;;;;;;;;;;
2021/12/22 09:20:33;;;;;;;;;;;;;;;;;;;;;
2021/12/22 09:23:47;;;;;;;15.70;8.98;;;;;;;;;;4889852;29;20029;-88
2021/12/22 09:26:20;;;;;;;16.52;8.93;;;;;;;;;;4864246;29;20536;-89
2021/12/22 09:28:52;;;;;;;17.42;9.80;;;;;;;;;;4877944;29;20036;-89
2021/12/22 09:32:18;;;;;;;17.92;9.25;;;;;;;;;;4875377;29;20047;-91
2021/12/22 09:34:50;;;;;;;15.25;8.75;;;;;;;;;;4866562;29;20047;-89
2021/12/22 09:37:48;;;;;;;18.50;9.68;;;;;;;;;;4873035;29;20040;-89
2021/12/22 09:40:50;;;;;;;20.77;9.57;;;;;;;;;;4876309;29;20044;-88
2021/12/22 09:43:30;;;;;;;15.00;8.30;;;;;;;;;;4873327;29;20048;-91
2021/12/22 09:46:21;;;;;;;;;;;;;;;;;;;;;
2021/12/22 09:49:23;;;;;;;16.85;9.05;;;;;;;;;;4893580;29;20040;-89
2021/12/22 09:52:37;;;;;;;17.63;10.18;;;;;;;;;;4888045;29;20139;-90
2021/12/22 09:55:46;;;;;;;16.65;9.70;;;;;;;;;;4893035;29;20045;-88
2021/12/22 09:58:40;;;;;;;16.40;8.20;;;;;;;;;;4885190;29;20073;-90
2021/12/22 10:04:55;;;;;;;17.25;8.85;;;;;;;;;;4874676;29;20143;-89
2021/12/22 10:07:41;;;;;;;;;;;;;;;;;;;;;
2021/12/22 10:10:39;;;;;;;14.73;8.15;;;;;;;;;;4886204;29;20270;-90
2021/12/22 10:13:28;;;;;;;15.23;8.63;;;;;;;;;;4875243;29;20033;-90
2021/12/22 10:16:54;;;;;;;16.10;8.80;;;;;;;;;;4891704;29;20536;-89
2021/12/22 10:19:54;;;;;;;16.20;9.00;;;;;;;;;;4874830;29;20029;-87
2021/12/22 10:23:18;;;;;;;18.17;9.45;;;;;;;;;;4889800;29;20071;-88
2021/12/22 10:26:16;;;;;;;17.08;8.95;;;;;;;;;;4871137;29;20048;-88
2021/12/22 10:40:29;;;;;;;14.70;8.32;;;;;;;;;;4816206;29;20418;-89
2021/12/22 10:43:00;;;;;;;14.27;8.13;;;;;;;;;;4853100;29;20113;-89
2021/12/22 10:45:35;;;;;;;14.60;8.75;;;;;;;;;;4841921;29;20057;-88
2021/12/22 10:55:01;;;;;;;16.50;8.35;;;;;;;;;;4839869;29;20441;-89
2021/12/22 11:01:24;;;;;;;;;;;;;;;;;;;;;
2021/12/22 11:04:07;;;;;;;12.35;7.85;;;;;;;;;;4891319;29;20032;-86
2021/12/22 12:07:44;;;;;;;11.65;7.18;;;;;;;;;;4841531;29;20516;-84
2021/12/22 12:10:46;;;;;;;11.07;7.03;;;;;;;;;;4830672;29;20060;-89
2021/12/22 12:13:49;;;;;;;11.25;7.00;;;;;;;;;;4760067;29;20125;-85
2021/12/22 12:22:35;;;;;;;13.27;7.20;;;;;;;;;;4706803;30;20241;-87
2021/12/22 12:28:16;;;;;;;14.25;7.47;;;;;;;;;;4675204;30;20054;-85
2021/12/22 12:30:59;;;;;;;14.77;7.45;;;;;;;;;;4686628;30;20171;-86
2021/12/22 12:41:53;;;;;;;12.00;7.38;;;;;;;;;;4763794;30;20050;-90
2021/12/22 12:44:49;;;;;;;14.13;7.93;;;;;;;;;;4763783;30;20028;-82
2021/12/22 12:47:24;;;;;;;14.43;7.82;;;;;;;;;;4752518;30;20048;-83
2021/12/22 12:49:52;;;;;;;14.77;7.80;;;;;;;;;;4752834;30;20934;-85
2021/12/22 12:52:23;;;;;;;13.98;8.15;;;;;;;;;;4763812;29;20051;-87
2021/12/22 12:55:10;;;;;;;16.13;9.15;;;;;;;;;;4833734;29;20046;-83
2021/12/22 12:58:18;;;;;;;17.23;9.52;;;;;;;;;;4826854;29;20048;-87
2021/12/22 13:00:53;;;;;;;14.88;9.57;;;;;;;;;;4833154;29;20029;-85
2021/12/22 13:03:18;;;;;;;14.52;9.38;;;;;;;;;;4843738;29;20413;-87
2021/12/22 13:05:46;;;;;;;15.77;10.40;;;;;;;;;;4835485;29;20029;-86
2021/12/22 13:08:12;;;;;;;17.88;10.43;;;;;;;;;;4849047;29;20072;-83
2021/12/22 13:10:39;;;;;;;21.55;10.68;;;;;;;;;;4847601;29;20062;-85
2021/12/22 13:13:17;;;;;;;15.50;10.07;;;;;;;;;;4856134;29;20088;-88
2021/12/22 13:15:51;;;;;;;18.73;11.43;;;;;;;;;;4861209;29;20033;-86
2021/12/22 13:18:28;;;;;;;20.23;11.60;;;;;;;;;;4851225;29;20552;-88
2021/12/22 13:20:57;;;;;;;19.15;10.93;;;;;;;;;;4862486;29;20036;-83
2021/12/22 13:23:26;;;;;;;19.10;11.55;;;;;;;;;;4847641;29;20068;-86
2021/12/22 13:25:53;;;;;;;18.67;11.80;;;;;;;;;;4847966;29;20034;-85
2021/12/22 13:28:21;;;;;;;21.20;13.27;;;;;;;;;;4852603;29;20481;-85
2021/12/22 13:30:54;;;;;;;21.08;12.88;;;;;;;;;;4867384;29;20026;-88
2021/12/22 13:33:23;;;;;;;24.50;14.27;;;;;;;;;;4841705;29;20036;-89
2021/12/22 13:35:51;;;;;;;20.20;13.80;;;;;;;;;;4849482;29;20030;-85
2021/12/22 13:38:31;;;;;;;21.70;13.93;;;;;;;;;;4848150;29;20030;-82
2021/12/22 13:41:01;;;;;;;23.27;14.68;;;;;;;;;;4849999;29;20389;-85
2021/12/22 13:44:02;;;;;;;20.75;14.80;;;;;;;;;;4864275;29;20038;-83
2021/12/22 13:49:32;;;;;;;21.70;12.85;;;;;;;;;;4855161;29;20120;-83
2021/12/22 13:52:03;;;;;;;24.60;14.00;;;;;;;;;;4865916;29;20481;-83
2021/12/22 13:54:32;;;;;;;22.63;13.85;;;;;;;;;;4861648;29;20060;-86
2021/12/22 14:00:05;;;;;;;21.67;13.45;;;;;;;;;;4845615;29;20040;-84
2021/12/22 14:02:35;;;;;;;20.27;12.93;;;;;;;;;;4854454;29;20056;-85
2021/12/22 14:05:14;;;;;;;19.98;13.10;;;;;;;;;;4873235;29;20034;-83
2021/12/22 14:07:46;;;;;;;20.17;12.73;;;;;;;;;;4864783;29;20033;-86
2021/12/22 14:10:14;;;;;;;20.85;12.73;;;;;;;;;;4847873;29;20037;-85
2021/12/22 14:12:44;;;;;;;22.85;13.18;;;;;;;;;;4863847;29;20061;-88
2021/12/22 14:15:11;;;;;;;18.50;11.50;;;;;;;;;;4866988;29;20037;-88
2021/12/22 14:17:41;;;;;;;18.23;11.45;;;;;;;;;;4859270;29;20029;-85
2021/12/22 14:20:12;;;;;;;19.70;11.45;;;;;;;;;;4862987;29;20085;-88
2021/12/22 14:22:40;;;;;;;21.65;11.75;;;;;;;;;;4860675;29;20026;-87
2021/12/22 14:25:11;;;;;;;18.08;11.77;;;;;;;;;;4865915;29;20042;-83
2021/12/22 14:27:42;;;;;;;19.77;11.90;;;;;;;;;;4858191;29;20108;-86
2021/12/22 14:30:31;;;;;;;17.23;11.73;;;;;;;;;;4857908;29;20029;-82
2021/12/22 14:33:06;;;;;;;20.25;12.13;;;;;;;;;;4856699;29;20053;-85
2021/12/22 14:35:42;;;;;;;19.63;12.32;;;;;;;;;;4857311;29;20116;-83
2021/12/22 14:38:10;;;;;;;20.42;12.52;;;;;;;;;;4863060;29;20021;-85
2021/12/22 14:40:38;;;;;;;19.02;12.05;;;;;;;;;;4863345;29;20032;-83
2021/12/22 14:43:08;;;;;;;25.48;12.68;;;;;;;;;;4871774;29;20100;-88
2021/12/22 14:45:39;;;;;;;21.35;13.10;;;;;;;;;;4861025;29;20753;-83
2021/12/22 14:48:12;;;;;;;22.52;12.43;;;;;;;;;;4870244;29;20033;-87
2021/12/22 14:50:41;;;;;;;23.52;13.02;;;;;;;;;;4874547;29;20041;-86
2021/12/22 14:53:09;;;;;;;22.23;12.70;;;;;;;;;;4858833;29;20046;-85
2021/12/22 14:55:46;;;;;;;21.45;13.52;;;;;;;;;;4850770;29;20069;-85
2021/12/22 14:58:14;;;;;;;20.10;12.82;;;;;;;;;;4856856;29;20062;-85
2021/12/22 15:00:43;;;;;;;21.20;13.35;;;;;;;;;;4856321;29;20026;-86
2021/12/22 15:03:08;;;;;;;20.00;12.23;;;;;;;;;;4857367;29;20721;-85
2021/12/22 15:05:34;;;;;;;20.90;13.32;;;;;;;;;;4857660;29;20029;-83
2021/12/22 15:08:00;;;;;;;21.10;13.20;;;;;;;;;;4865040;29;20064;-86
2021/12/22 15:10:25;;;;;;;19.27;12.35;;;;;;;;;;4859234;29;20073;-83
2021/12/22 15:12:51;;;;;;;24.15;13.30;;;;;;;;;;4862589;29;20042;-85
2021/12/22 15:15:16;;;;;;;23.65;12.70;;;;;;;;;;4855409;29;20045;-85
2021/12/22 15:17:41;;;;;;;26.13;12.93;;;;;;;;;;4856529;29;20029;-86
2021/12/22 15:20:08;;;;;;;21.20;12.73;;;;;;;;;;4865314;29;20096;-86
2021/12/22 15:22:33;;;;;;;18.73;12.90;;;;;;;;;;4858580;29;20509;-86
2021/12/22 15:24:58;;;;;;;24.70;12.80;;;;;;;;;;4867027;29;20022;-86
2021/12/22 15:27:24;;;;;;;21.58;13.52;;;;;;;;;;4854935;29;20041;-85
2021/12/22 15:29:49;;;;;;;21.65;13.52;;;;;;;;;;4861776;29;20033;-85
2021/12/22 15:32:15;;;;;;;21.67;13.32;;;;;;;;;;4863297;29;20037;-83
2021/12/22 15:34:40;;;;;;;22.33;13.45;;;;;;;;;;4848317;29;20040;-83
2021/12/22 15:37:05;;;;;;;22.05;14.10;;;;;;;;;;4857433;29;20048;-84
2021/12/22 15:39:31;;;;;;;21.88;13.30;;;;;;;;;;4855631;29;20048;-84
2021/12/22 15:41:56;;;;;;;23.48;13.85;;;;;;;;;;4855097;29;20507;-84
2021/12/22 15:44:21;;;;;;;25.30;14.35;;;;;;;;;;4856897;29;20392;-85
2021/12/22 15:46:50;;;;;;;21.65;12.68;;;;;;;;;;4861636;29;20085;-84
2021/12/22 15:49:18;;;;;;;21.27;12.82;;;;;;;;;;4860995;29;20032;-85
2021/12/22 15:51:50;;;;;;;21.90;12.70;;;;;;;;;;4860004;29;20033;-85
2021/12/22 15:54:16;;;;;;;22.65;12.25;;;;;;;;;;4858383;29;20501;-82
2021/12/22 15:56:44;;;;;;;20.55;13.15;;;;;;;;;;4857243;29;20204;-87
2021/12/22 15:59:10;;;;;;;23.17;13.75;;;;;;;;;;4868724;29;20040;-87
2021/12/22 16:01:35;;;;;;;21.50;12.98;;;;;;;;;;4852351;29;20049;-85
2021/12/22 16:04:00;;;;;;;20.50;13.07;;;;;;;;;;4841929;29;20028;-85
2021/12/22 16:06:26;;;;;;;22.25;12.40;;;;;;;;;;4851318;29;20033;-84
2021/12/22 16:08:51;;;;;;;20.85;13.30;;;;;;;;;;4844427;29;20035;-83
2021/12/22 16:11:24;;;;;;;24.52;14.13;;;;;;;;;;4842825;29;20037;-88
2021/12/22 16:13:53;;;;;;;23.83;13.90;;;;;;;;;;4840270;29;21128;-85
2021/12/22 16:16:26;;;;;;;21.88;12.43;;;;;;;;;;4859429;29;20044;-81
2021/12/22 16:18:54;;;;;;;22.67;13.52;;;;;;;;;;4840160;29;20037;-85
2021/12/22 16:21:28;;;;;;;21.67;13.80;;;;;;;;;;4841489;29;20029;-85
2021/12/22 16:23:56;;;;;;;23.70;13.48;;;;;;;;;;4852696;29;20029;-85
2021/12/22 16:26:24;;;;;;;20.73;12.57;;;;;;;;;;4842474;29;20029;-85
2021/12/22 16:28:56;;;;;;;18.77;12.88;;;;;;;;;;4838161;29;20029;-85
2021/12/22 16:31:27;;;;;;;19.33;12.50;;;;;;;;;;4846033;29;20033;-86
2021/12/22 16:33:55;;;;;;;18.35;11.82;;;;;;;;;;4843163;29;20029;-84
2021/12/22 16:36:30;;;;;;;22.02;12.90;;;;;;;;;;4836814;29;20029;-83
2021/12/22 16:38:58;;;;;;;20.20;11.95;;;;;;;;;;4853990;29;20025;-86
2021/12/22 16:41:28;;;;;;;21.02;12.90;;;;;;;;;;4844282;29;20048;-83
2021/12/22 16:43:59;;;;;;;21.13;12.40;;;;;;;;;;4859634;29;20116;-85
2021/12/22 16:46:27;;;;;;;19.00;11.40;;;;;;;;;;4848484;29;20529;-88
2021/12/22 16:48:59;;;;;;;19.63;13.00;;;;;;;;;;4844992;29;20037;-86
2021/12/22 16:51:31;;;;;;;19.05;11.82;;;;;;;;;;4842425;29;20450;-84
2021/12/22 16:54:00;;;;;;;20.58;12.02;;;;;;;;;;4844824;29;20048;-84
2021/12/22 16:56:31;;;;;;;24.40;12.95;;;;;;;;;;4849964;29;20065;-86
2021/12/22 16:59:00;;;;;;;21.58;11.50;;;;;;;;;;4865225;29;20033;-88
2021/12/22 17:01:33;;;;;;;23.67;11.85;;;;;;;;;;4847224;29;20032;-87
2021/12/22 17:04:03;;;;;;;24.35;11.90;;;;;;;;;;4849849;29;20097;-87
2021/12/22 18:06:18;;;;;;;22.33;12.25;;;;;;;;;;1769572;23;20019;-85
2021/12/22 18:09:22;;;;;;;;;;;;;;;;;;;;;
2021/12/22 18:12:13;;;;;;;23.48;11.63;;;;;;;;;;4797675;29;20049;-90
2021/12/22 18:15:16;;;;;;;24.35;12.95;;;;;;;;;;4788853;29;20050;-86
2021/12/22 18:21:20;;;;;;;22.20;12.05;;;;;;;;;;4804522;29;20053;-87
2021/12/22 18:26:46;;;;;;;19.17;11.20;;;;;;;;;;4818398;29;20034;-88
2021/12/22 18:29:46;;;;;;;22.00;11.40;;;;;;;;;;4821427;29;20040;-88
2021/12/22 18:32:16;;;;;;;23.25;12.55;;;;;;;;;;4822244;29;20038;-88
2021/12/22 18:34:45;;;;;;;21.70;12.38;;;;;;;;;;4808670;29;20046;-90
2021/12/22 18:37:23;;;;;;;21.00;12.38;;;;;;;;;;4813096;29;20085;-88
2021/12/22 18:39:50;;;;;;;22.58;12.52;;;;;;;;;;4819908;29;20048;-86